createdAt,value
2023-09-08T05:44:54.108Z,5.68
2023-09-08T05:48:24.124Z,5.72
2023-09-08T06:33:54.004Z,4.80
2023-09-08T08:18:37.964Z,4.68
2023-09-08T08:21:43.323Z,4.82
2023-09-08T08:24:45.926Z,5.12
2023-09-08T08:27:48.555Z,6.03
2023-09-08T08:30:51.203Z,5.20
2023-09-08T08:33:53.913Z,5.43
2023-09-08T08:36:56.336Z,5.15
2023-09-08T08:39:58.982Z,5.43
2023-09-08T08:43:02.840Z,5.10
2023-09-08T08:46:06.484Z,5.05
2023-09-08T08:49:10.845Z,5.65
2023-09-08T08:52:15.773Z,5.20
2023-09-08T08:55:18.296Z,5.30
2023-09-08T08:58:26.103Z,4.90
2023-09-08T09:01:30.272Z,4.28
2023-09-08T09:04:34.811Z,5.10
2023-09-08T09:07:38.555Z,5.37
2023-09-08T09:10:41.223Z,5.78
2023-09-08T09:13:43.428Z,5.50
2023-09-08T09:16:45.985Z,5.25
2023-09-08T09:19:48.290Z,5.35
2023-09-08T09:22:50.981Z,5.93
2023-09-08T09:25:53.693Z,5.22
2023-09-08T09:28:56.459Z,5.30
2023-09-08T09:32:03.720Z,5.70
2023-09-08T09:35:07.066Z,5.93
2023-09-08T09:38:09.862Z,5.05
2023-09-08T09:41:12.445Z,5.72
2023-09-08T09:44:15.312Z,5.37
2023-09-08T09:47:18.260Z,5.43
2023-09-08T09:50:34.663Z,5.57
2023-09-08T09:53:37.249Z,5.00
2023-09-08T09:56:40.783Z,5.15
2023-09-08T09:59:43.666Z,5.05
2023-09-08T10:02:47.360Z,5.47
2023-09-08T10:05:51.206Z,5.80
2023-09-08T10:08:55.329Z,5.10
2023-09-08T10:12:04.254Z,5.60
2023-09-08T10:15:08.066Z,5.00
2023-09-08T10:18:15.639Z,4.97
2023-09-08T10:21:19.900Z,4.82
2023-09-08T10:24:28.109Z,4.55
2023-09-08T10:27:30.768Z,4.78
2023-09-08T10:30:33.907Z,5.00
2023-09-08T10:33:37.886Z,4.78
2023-09-08T10:36:40.780Z,4.55
2023-09-08T10:39:43.178Z,4.10
2023-09-08T10:42:46.033Z,4.55
2023-09-08T10:45:48.830Z,4.95
2023-09-08T10:48:53.899Z,4.87
2023-09-08T10:52:09.585Z,3.90
2023-09-08T10:55:15.979Z,4.00
2023-09-08T10:58:19.956Z,4.05
2023-09-08T11:01:29.630Z,4.43
2023-09-08T11:04:33.603Z,4.45
2023-09-08T11:07:40.695Z,3.60
2023-09-08T11:10:44.021Z,3.80
2023-09-08T11:13:47.948Z,3.70
2023-09-08T11:16:50.529Z,4.10
2023-09-08T11:19:53.226Z,3.95
2023-09-08T11:22:55.897Z,3.60
2023-09-08T11:26:00.310Z,3.72
2023-09-08T11:29:03.938Z,3.80
2023-09-08T11:32:10.519Z,3.95
2023-09-08T11:35:14.684Z,3.85
2023-09-08T11:38:17.423Z,4.03
2023-09-08T11:41:24.614Z,4.00
2023-09-08T11:47:30.074Z,3.97
2023-09-08T11:50:32.944Z,3.85
2023-09-08T11:53:36.217Z,3.80
2023-09-08T11:56:40.249Z,3.75
2023-09-08T11:59:43.072Z,3.67
2023-09-08T12:02:46.881Z,3.65
2023-09-08T12:05:57.309Z,3.62
2023-09-08T12:09:04.673Z,3.67
2023-09-08T12:12:12.955Z,3.83
2023-09-08T12:15:33.552Z,3.95
2023-09-08T12:18:45.452Z,3.75
2023-09-08T12:22:01.687Z,3.60
2023-09-08T12:25:09.773Z,3.55
2023-09-08T12:28:12.467Z,4.12
2023-09-08T12:31:16.491Z,3.40
2023-09-08T12:34:22.517Z,3.47
2023-09-08T12:37:30.639Z,4.10
2023-09-08T12:43:40.333Z,3.95
2023-09-08T12:46:43.150Z,3.47
2023-09-08T12:49:46.393Z,3.90
2023-09-08T12:52:48.948Z,3.70
2023-09-08T12:55:52.185Z,3.75
2023-09-08T12:58:55.117Z,3.12
2023-09-08T13:01:59.244Z,3.95
2023-09-08T13:05:03.415Z,3.85
2023-09-08T13:08:06.753Z,3.78
2023-09-08T13:11:09.983Z,3.50
2023-09-08T13:14:13.813Z,3.33
2023-09-08T13:17:19.023Z,3.78
2023-09-08T13:20:21.952Z,4.15
2023-09-08T13:23:24.322Z,3.42
2023-09-08T13:26:27.072Z,3.92
2023-09-08T13:29:29.571Z,4.12
2023-09-08T13:32:32.446Z,3.65
2023-09-08T13:35:34.793Z,3.60
2023-09-08T13:38:38.249Z,3.00
2023-09-08T13:41:57.360Z,3.15
2023-09-08T13:45:00.740Z,3.45
2023-09-08T13:48:07.548Z,3.28
2023-09-08T13:51:11.178Z,3.70
2023-09-08T13:54:17.532Z,3.87
2023-09-08T13:57:22.916Z,3.72
2023-09-08T14:00:26.090Z,3.78
2023-09-08T14:03:48.491Z,3.05
2023-09-08T14:06:59.049Z,3.78
2023-09-08T14:10:26.329Z,3.70
2023-09-08T14:13:30.514Z,3.70
2023-09-08T14:16:33.393Z,3.65
2023-09-08T14:19:35.812Z,3.90
2023-09-08T14:22:39.610Z,3.83
2023-09-08T14:25:42.120Z,4.10
2023-09-08T14:28:44.954Z,3.47
2023-09-08T14:31:47.326Z,3.35
2023-09-08T14:34:50.112Z,3.28
2023-09-08T14:37:52.534Z,3.87
2023-09-08T14:41:00.530Z,3.87
2023-09-08T14:44:02.937Z,3.58
2023-09-08T14:47:05.594Z,3.50
2023-09-08T14:50:08.315Z,3.75
2023-09-08T14:53:11.114Z,3.83
2023-09-08T14:56:13.353Z,3.58
2023-09-08T14:59:15.924Z,3.20
2023-09-08T15:02:18.200Z,3.42
2023-09-08T15:05:20.911Z,3.58
2023-09-08T15:08:23.378Z,3.58
2023-09-08T15:11:25.950Z,4.00
2023-09-08T15:14:28.199Z,3.67
2023-09-08T15:17:31.415Z,4.22
2023-09-08T15:20:33.771Z,3.37
2023-09-08T15:23:37.099Z,4.07
2023-09-08T15:26:39.913Z,3.67
2023-09-08T15:29:42.472Z,3.40
2023-09-08T15:32:46.252Z,3.80
2023-09-08T15:35:48.901Z,3.97
2023-09-08T15:38:51.260Z,4.62
2023-09-08T15:41:53.940Z,3.62
2023-09-08T15:44:56.180Z,3.80
2023-09-08T15:47:58.757Z,3.53
2023-09-08T15:51:01.129Z,3.58
2023-09-08T15:54:04.802Z,3.60
2023-09-08T15:57:08.456Z,4.00
2023-09-08T16:00:12.129Z,3.60
2023-09-08T16:03:14.826Z,3.87
2023-09-08T16:06:19.640Z,3.53
2023-09-08T16:09:22.252Z,3.92
2023-09-08T16:12:24.518Z,3.37
2023-09-08T16:15:28.896Z,3.17
2023-09-08T16:18:33.945Z,3.92
2023-09-08T16:21:36.468Z,3.53
2023-09-08T16:24:38.738Z,3.75
2023-09-08T16:27:41.298Z,3.55
2023-09-08T16:30:43.654Z,3.80
2023-09-08T16:33:46.312Z,3.97
2023-09-08T16:36:49.084Z,3.78
2023-09-08T16:39:51.878Z,4.53
2023-09-08T16:42:54.175Z,3.85
2023-09-08T16:45:56.798Z,4.22
2023-09-08T16:48:59.078Z,3.75
2023-09-08T16:52:01.644Z,3.62
2023-09-08T16:55:04.253Z,3.78
2023-09-08T16:58:06.850Z,4.15
2023-09-08T17:01:09.493Z,3.97
2023-09-08T17:04:12.590Z,3.67
2023-09-08T17:07:15.958Z,3.78
2023-09-08T17:10:18.722Z,3.80
2023-09-08T17:13:20.969Z,3.97
2023-09-08T17:16:23.540Z,4.40
2023-09-08T17:19:25.819Z,4.22
2023-09-08T17:22:28.452Z,4.65
2023-09-08T17:25:30.663Z,4.43
2023-09-08T17:28:35.460Z,4.40
2023-09-08T17:31:38.504Z,4.05
2023-09-08T17:34:41.079Z,4.70
2023-09-08T17:37:43.345Z,5.28
2023-09-08T17:40:45.936Z,4.75
2023-09-08T17:43:48.208Z,5.03
2023-09-08T17:46:51.321Z,5.93
2023-09-08T17:49:54.015Z,6.07
2023-09-08T17:52:56.653Z,5.55
2023-09-08T17:55:58.886Z,5.97
2023-09-08T17:59:01.463Z,5.68
2023-09-08T18:02:04.002Z,5.55
2023-09-08T18:05:07.234Z,5.75
2023-09-08T18:08:09.456Z,6.12
2023-09-08T18:11:12.038Z,5.07
2023-09-08T18:14:14.317Z,6.03
2023-09-08T18:17:16.846Z,4.75
2023-09-08T18:20:19.804Z,4.95
2023-09-08T18:23:22.639Z,5.30
2023-09-08T18:26:25.303Z,6.00
2023-09-08T18:29:29.269Z,5.43
2023-09-08T18:32:32.668Z,5.30
2023-09-08T18:35:35.337Z,5.65
2023-09-08T18:38:37.681Z,5.53
2023-09-08T18:41:40.602Z,5.15
2023-09-08T18:44:43.592Z,5.65
2023-09-08T18:47:47.042Z,5.28
2023-09-08T18:50:49.824Z,5.60
2023-09-08T18:53:52.639Z,4.95
2023-09-08T18:56:54.978Z,5.53
2023-09-08T18:59:58.129Z,5.45
2023-09-08T19:03:00.740Z,5.12
2023-09-08T19:06:05.444Z,4.95
2023-09-08T19:09:08.383Z,5.65
2023-09-08T19:12:10.913Z,4.87
2023-09-08T19:15:13.121Z,5.00
2023-09-08T19:18:17.402Z,5.25
2023-09-08T19:21:19.738Z,4.72
2023-09-08T19:24:24.956Z,5.25
2023-09-08T19:27:27.331Z,5.25
2023-09-08T19:30:30.148Z,5.43
2023-09-08T19:33:32.538Z,5.50
2023-09-08T19:36:35.227Z,5.87
2023-09-08T19:39:37.605Z,5.93
2023-09-08T19:42:40.152Z,6.05
2023-09-08T19:45:42.408Z,7.18
2023-09-08T19:48:45.101Z,5.45
2023-09-08T19:51:47.448Z,5.40
2023-09-08T19:54:50.028Z,5.70
2023-09-08T19:57:52.262Z,5.95
2023-09-08T20:00:54.985Z,5.07
2023-09-08T20:03:57.744Z,6.57
2023-09-08T20:07:00.659Z,5.72
2023-09-08T20:10:03.662Z,5.47
2023-09-08T20:13:06.072Z,5.55
2023-09-08T20:16:08.835Z,5.35
2023-09-08T20:19:11.642Z,5.22
2023-09-08T20:22:14.250Z,5.37
2023-09-08T20:25:16.552Z,5.20
2023-09-08T20:28:19.174Z,5.12
2023-09-08T20:31:21.967Z,5.18
2023-09-08T20:34:24.809Z,5.22
2023-09-08T20:37:27.090Z,5.80
2023-09-08T20:40:29.792Z,4.85
2023-09-08T20:43:33.878Z,5.30
2023-09-08T20:46:36.748Z,5.62
2023-09-08T20:49:39.078Z,5.62
2023-09-08T20:52:42.058Z,5.70
2023-09-08T20:55:44.332Z,5.25
2023-09-08T20:58:46.901Z,5.75
2023-09-08T21:01:49.204Z,5.72
2023-09-08T21:04:51.882Z,5.20
2023-09-08T21:07:55.881Z,5.20
2023-09-08T21:10:58.921Z,5.70
2023-09-08T21:14:01.912Z,5.70
2023-09-08T21:17:05.473Z,5.70
2023-09-08T21:20:09.089Z,4.65
2023-09-08T21:23:12.133Z,5.40
2023-09-08T21:26:17.597Z,4.78
2023-09-08T21:29:20.742Z,5.70
2023-09-08T21:32:24.975Z,5.70
2023-09-08T21:35:29.977Z,5.40
2023-09-08T21:38:32.248Z,4.82
2023-09-08T21:41:35.321Z,5.35
2023-09-08T21:44:38.000Z,5.47
2023-09-08T21:47:40.554Z,5.72
2023-09-08T21:50:42.902Z,5.90
2023-09-08T21:53:45.773Z,5.55
2023-09-08T21:56:48.203Z,6.57
2023-09-08T21:59:50.814Z,5.80
2023-09-08T22:02:53.197Z,5.03
2023-09-08T22:05:55.995Z,5.50
2023-09-08T22:08:58.236Z,4.85
2023-09-08T22:12:02.442Z,5.20
2023-09-08T22:15:05.354Z,5.50
2023-09-08T22:18:08.102Z,5.53
2023-09-08T22:21:10.430Z,4.70
2023-09-08T22:24:13.067Z,5.25
2023-09-08T22:27:15.782Z,5.03
2023-09-08T22:30:21.996Z,5.12
2023-09-08T22:33:26.217Z,5.30
2023-09-08T22:36:29.029Z,4.82
2023-09-08T22:39:31.271Z,5.55
2023-09-08T22:42:33.909Z,5.50
2023-09-08T22:45:36.303Z,5.50
2023-09-08T22:48:38.909Z,5.53
2023-09-08T22:51:41.231Z,5.30
2023-09-08T22:54:43.795Z,5.57
2023-09-08T22:57:46.187Z,5.20
2023-09-08T23:00:48.767Z,5.12
2023-09-08T23:03:51.030Z,5.72
2023-09-08T23:06:53.545Z,5.12
2023-09-08T23:09:55.866Z,4.78
2023-09-08T23:12:58.520Z,5.60
2023-09-08T23:16:00.889Z,5.03
2023-09-08T23:19:03.655Z,4.65
2023-09-08T23:22:05.885Z,4.95
2023-09-08T23:25:08.674Z,5.40
2023-09-08T23:28:11.060Z,5.70
2023-09-08T23:31:13.707Z,5.22
2023-09-08T23:34:15.991Z,5.32
2023-09-08T23:37:18.799Z,5.03
2023-09-08T23:40:21.880Z,5.22
2023-09-08T23:43:24.876Z,5.53
2023-09-08T23:46:27.222Z,6.45
2023-09-08T23:49:29.816Z,5.47
2023-09-08T23:52:32.167Z,5.85
2023-09-08T23:55:37.308Z,5.93
2023-09-08T23:58:39.590Z,5.95
